createdAt,value
2019-04-05T00:03:01.924Z,7.60
2019-04-05T00:09:05.636Z,7.60
2019-04-05T00:15:15.488Z,7.50
2019-04-05T00:21:12.855Z,7.50
2019-04-05T00:27:15.189Z,7.40
2019-04-05T00:33:17.650Z,7.40
2019-04-05T00:39:19.896Z,7.30
2019-04-05T00:45:27.910Z,7.10
2019-04-05T00:51:26.551Z,7.00
2019-04-05T00:57:29.164Z,6.90
2019-04-05T01:03:31.942Z,6.70
2019-04-05T01:09:34.445Z,6.60
2019-04-05T01:15:41.078Z,6.40
2019-04-05T01:21:45.087Z,6.30
2019-04-05T01:27:48.589Z,6.20
2019-04-05T01:33:51.166Z,6.00
2019-04-05T01:39:53.485Z,6.00
2019-04-05T01:45:56.803Z,6.00
2019-04-05T01:51:59.071Z,5.90
2019-04-05T01:58:01.420Z,5.90
2019-04-05T02:04:03.694Z,6.00
2019-04-05T02:10:07.392Z,5.90
2019-04-05T02:16:09.777Z,5.80
2019-04-05T02:22:15.706Z,5.70
2019-04-05T02:28:17.996Z,5.60
2019-04-05T02:34:20.306Z,5.60
2019-04-05T02:40:25.517Z,5.60
2019-04-05T02:46:34.102Z,5.50
2019-04-05T02:52:37.031Z,5.50
2019-04-05T02:58:42.251Z,5.50
2019-04-05T03:04:44.549Z,5.50
2019-04-05T03:11:05.437Z,5.60
2019-04-05T03:17:09.587Z,5.60
2019-04-05T03:23:12.321Z,5.70
2019-04-05T03:29:14.809Z,5.90
2019-04-05T03:35:17.475Z,6.00
2019-04-05T03:41:21.425Z,6.10
2019-04-05T03:47:23.742Z,6.30
2019-04-05T03:53:26.092Z,6.30
2019-04-05T03:59:28.521Z,6.30
2019-04-05T04:05:30.887Z,6.20
2019-04-05T04:11:33.319Z,6.20
2019-04-05T04:17:35.981Z,6.30
2019-04-05T04:23:38.378Z,6.30
2019-04-05T04:29:41.849Z,6.40
2019-04-05T04:35:44.937Z,6.50
2019-04-05T04:41:47.304Z,6.60
2019-04-05T04:47:50.005Z,6.50
2019-04-05T04:53:52.688Z,6.50
2019-04-05T04:59:57.324Z,6.60
2019-04-05T05:05:59.761Z,6.60
2019-04-05T05:12:02.362Z,6.60
2019-04-05T05:18:05.666Z,6.60
2019-04-05T05:24:08.330Z,6.70
2019-04-05T05:30:11.273Z,6.70
2019-04-05T05:36:13.935Z,6.80
2019-04-05T05:42:19.669Z,6.80
2019-04-05T05:48:22.479Z,6.80
2019-04-05T05:54:24.981Z,7.00
2019-04-05T06:00:30.317Z,7.50
2019-04-05T06:06:32.320Z,7.80
2019-04-05T06:12:34.668Z,7.90
2019-04-05T06:18:39.072Z,8.10
2019-04-05T06:24:41.764Z,8.50
2019-04-05T06:30:44.067Z,9.30
2019-04-05T06:36:46.515Z,9.80
2019-04-05T06:42:49.932Z,9.90
2019-04-05T06:48:52.288Z,10.20
2019-04-05T06:54:54.686Z,10.20
2019-04-05T07:00:57.702Z,10.40
2019-04-05T07:07:00.255Z,11.30
2019-04-05T07:13:02.779Z,12.60
2019-04-05T07:19:05.461Z,13.10
2019-04-05T07:25:08.294Z,12.80
2019-04-05T07:31:10.705Z,12.90
2019-04-05T07:37:13.024Z,12.50
2019-04-05T07:43:15.683Z,12.80
2019-04-05T07:49:19.256Z,13.20
2019-04-05T07:55:28.599Z,13.30
2019-04-05T08:01:33.945Z,13.60
2019-04-05T08:07:40.414Z,14.30
2019-04-05T08:13:45.362Z,14.90
2019-04-05T08:19:49.755Z,14.50
2019-04-05T08:25:53.081Z,15.10
2019-04-05T08:31:58.630Z,16.00
2019-04-05T08:38:03.296Z,16.70
2019-04-05T08:44:05.785Z,16.60
2019-04-05T08:50:12.864Z,17.60
2019-04-05T08:56:18.532Z,19.20
2019-04-05T09:02:28.130Z,20.60
2019-04-05T09:08:31.656Z,19.70
2019-04-05T09:14:34.573Z,18.80
2019-04-05T09:20:37.436Z,19.30
2019-04-05T09:26:40.082Z,17.90
2019-04-05T09:32:42.443Z,17.60
2019-04-05T09:38:45.823Z,17.30
2019-04-05T09:44:50.829Z,17.50
2019-04-05T09:50:53.203Z,17.70
2019-04-05T09:56:56.865Z,18.40
2019-04-05T10:03:09.633Z,18.90
2019-04-05T10:09:12.139Z,19.40
2019-04-05T10:15:15.313Z,18.20
2019-04-05T10:21:20.795Z,17.30
2019-04-05T10:27:24.959Z,17.40
2019-04-05T10:33:27.622Z,16.80
2019-04-05T10:39:30.342Z,17.20
2019-04-05T10:45:33.688Z,17.80
2019-04-05T10:51:42.569Z,18.00
2019-04-05T10:57:45.495Z,17.90
2019-04-05T11:03:50.124Z,18.30
2019-04-05T11:09:54.633Z,17.40
2019-04-05T11:15:57.307Z,17.80
2019-04-05T11:22:00.210Z,18.10
2019-04-05T11:28:03.038Z,17.80
2019-04-05T11:34:07.504Z,17.90
2019-04-05T11:40:11.719Z,17.90
2019-04-05T11:46:18.091Z,18.20
2019-04-05T11:52:20.433Z,17.90
2019-04-05T11:58:22.777Z,18.10
2019-04-05T12:04:31.352Z,17.90
2019-04-05T12:10:40.475Z,18.00
2019-04-05T12:16:45.186Z,18.20
2019-04-05T12:22:52.476Z,17.60
2019-04-05T12:28:54.192Z,18.20
2019-04-05T12:35:03.405Z,17.80
2019-04-05T12:41:06.201Z,18.10
2019-04-05T12:47:10.743Z,18.20
2019-04-05T12:53:17.813Z,18.10
2019-04-05T12:59:20.338Z,18.00
2019-04-05T13:05:26.168Z,18.00
2019-04-05T13:11:29.590Z,18.60
2019-04-05T13:17:32.168Z,18.30
2019-04-05T13:23:35.957Z,18.30
2019-04-05T13:29:39.240Z,18.20
2019-04-05T13:35:41.564Z,18.60
2019-04-05T13:41:43.867Z,19.80
2019-04-05T13:47:51.025Z,19.40
2019-04-05T13:53:53.285Z,19.30
2019-04-05T14:00:00.010Z,18.80
2019-04-05T14:06:05.709Z,18.90
2019-04-05T14:12:09.568Z,18.70
2019-04-05T14:18:15.798Z,18.70
2019-04-05T14:24:19.136Z,18.70
2019-04-05T14:30:22.972Z,18.20
2019-04-05T14:36:26.083Z,18.00
2019-04-05T14:42:32.120Z,17.70
2019-04-05T14:48:35.448Z,17.60
2019-04-05T14:54:49.547Z,17.80
2019-04-05T15:00:56.154Z,17.80
2019-04-05T15:07:03.068Z,17.50
2019-04-05T15:13:14.493Z,17.20
2019-04-05T15:19:19.117Z,17.10
2019-04-05T15:25:23.562Z,17.00
2019-04-05T15:31:28.907Z,17.00
2019-04-05T15:37:47.017Z,16.50
2019-04-05T15:43:49.562Z,16.30
2019-04-05T15:50:01.229Z,16.20
2019-04-05T15:56:14.593Z,16.00
2019-04-05T16:02:26.643Z,15.80
2019-04-05T16:08:33.147Z,15.60
2019-04-05T16:14:37.771Z,15.40
2019-04-05T16:20:46.697Z,15.30
2019-04-05T16:26:57.013Z,15.10
2019-04-05T16:32:59.448Z,14.90
2019-04-05T16:39:10.487Z,14.60
2019-04-05T16:45:15.665Z,14.30
2019-04-05T16:51:21.784Z,14.20
2019-04-05T16:57:24.114Z,14.10
2019-04-05T17:03:26.454Z,13.90
2019-04-05T17:09:29.020Z,13.90
2019-04-05T17:15:31.474Z,13.80
2019-04-05T17:21:33.752Z,13.40
2019-04-05T17:27:36.091Z,13.10
2019-04-05T17:33:38.539Z,12.90
2019-04-05T17:39:40.735Z,12.70
2019-04-05T17:45:44.224Z,12.60
2019-04-05T17:51:46.519Z,12.60
2019-04-05T17:57:50.606Z,12.50
2019-04-05T18:03:56.648Z,12.50
2019-04-05T18:09:59.052Z,12.30
2019-04-05T18:16:01.680Z,12.30
2019-04-05T18:22:04.509Z,12.20
2019-04-05T18:28:06.881Z,12.10
2019-04-05T18:34:09.766Z,12.00
2019-04-05T18:40:13.237Z,12.00
2019-04-05T18:46:16.084Z,11.80
2019-04-05T18:52:18.939Z,11.60
2019-04-05T18:58:22.803Z,11.50
2019-04-05T19:04:25.894Z,11.40
2019-04-05T19:10:36.945Z,11.40
2019-04-05T19:16:34.589Z,11.30
2019-04-05T19:22:38.297Z,11.10
2019-04-05T19:28:42.478Z,11.00
2019-04-05T19:53:21.967Z,10.20
2019-04-05T19:59:25.283Z,10.10
2019-04-05T20:05:30.045Z,9.90
2019-04-05T20:11:34.956Z,9.70
2019-04-05T20:17:39.558Z,9.60
2019-04-05T20:23:47.995Z,9.40
2019-04-05T20:29:52.172Z,9.20
2019-04-05T20:35:55.723Z,9.10
2019-04-05T20:42:01.403Z,9.10
2019-04-05T20:48:03.793Z,9.10
2019-04-05T20:54:08.997Z,9.00
2019-04-05T21:00:13.952Z,9.00
2019-04-05T21:06:17.787Z,9.00
2019-04-05T21:12:21.207Z,9.00
2019-04-05T21:18:25.376Z,8.90
2019-04-05T21:24:36.098Z,8.70
2019-04-05T21:30:41.775Z,8.70
2019-04-05T21:37:12.883Z,8.50
2019-04-05T21:43:17.859Z,8.50
2019-04-05T21:49:23.364Z,8.40
2019-04-05T21:55:26.718Z,8.30
2019-04-05T22:01:29.544Z,8.20
2019-04-05T22:07:33.817Z,8.20
2019-04-05T22:13:36.458Z,8.30
2019-04-05T22:19:39.968Z,8.30
2019-04-05T22:25:44.294Z,8.20
2019-04-05T22:31:49.021Z,8.20
2019-04-05T22:38:15.008Z,8.10
2019-04-05T22:44:17.470Z,8.10
2019-04-05T22:50:21.553Z,8.00
2019-04-05T22:56:26.014Z,7.90
2019-04-05T23:02:28.872Z,7.80
2019-04-05T23:08:32.509Z,7.70
2019-04-05T23:14:34.925Z,7.60
2019-04-05T23:20:40.401Z,7.50
2019-04-05T23:26:42.722Z,7.50
2019-04-05T23:32:44.969Z,7.40
2019-04-05T23:38:47.492Z,7.40
2019-04-05T23:44:49.759Z,7.40
2019-04-05T23:50:52.185Z,7.40
2019-04-05T23:56:54.426Z,7.30
